Time;durP1;ratioP1;P1;durP2;ratioP2;P2;SDS_P1;SDS_P2;PMS_P1;PMS_P2;Temp;Humidity;BMP_temperature;BMP_pressure;BME280_temperature;BME280_humidity;BME280_pressure;Samples;Min_cycle;Max_cycle;Signal;HPM_P1;HPM_P2
2022/08/23 00:02:36;;;;;;;20.27;11.98;;;;;18.00;100899.00;;;;12648581;23;20568;-79
2022/08/23 00:07:42;;;;;;;24.88;11.45;;;;;18.00;100891.00;;;;12647135;23;20217;-79
2022/08/23 00:12:46;;;;;;;22.42;12.07;;;;;18.00;100890.00;;;;12694084;23;20652;-79
2022/08/23 00:17:49;;;;;;;26.15;12.25;;;;;17.90;100886.00;;;;12672280;23;20274;-79
2022/08/23 00:22:51;;;;;;;20.67;11.88;;;;;17.90;100878.00;;;;12669358;23;20246;-78
2022/08/23 00:27:53;;;;;;;17.48;11.80;;;;;18.00;100887.00;;;;12672335;23;20507;-78
2022/08/23 00:32:55;;;;;;;22.83;11.80;;;;;18.10;100888.00;;;;12673061;23;20168;-78
2022/08/23 00:37:59;;;;;;;22.63;11.45;;;;;18.10;100875.00;;;;12668711;23;20183;-78
2022/08/23 00:48:54;;;;;;;22.75;12.38;;;;;18.20;100874.00;;;;12648409;23;20210;-78
2022/08/23 00:54:00;;;;;;;19.10;10.90;;;;;18.30;100882.00;;;;12671837;23;20231;-79
2022/08/23 00:59:02;;;;;;;16.25;10.13;;;;;18.30;100880.00;;;;12716585;23;20229;-78
2022/08/23 01:04:04;;;;;;;23.45;10.25;;;;;18.20;100885.00;;;;12671594;23;20172;-79
2022/08/23 01:09:10;;;;;;;14.63;10.75;;;;;18.20;100887.00;;;;12672387;23;20191;-78
2022/08/23 01:14:19;;;;;;;21.77;10.38;;;;;18.10;100886.00;;;;12648144;23;20247;-78
2022/08/23 01:19:37;;;;;;;23.27;9.93;;;;;18.10;100891.00;;;;12671580;23;20188;-79
2022/08/23 01:24:41;;;;;;;19.55;10.45;;;;;18.00;100882.00;;;;12716474;23;20171;-78
2022/08/23 01:30:08;;;;;;;16.38;9.15;;;;;18.00;100880.00;;;;12696353;23;20247;-78
2022/08/23 01:35:11;;;;;;;24.60;10.73;;;;;17.90;100888.00;;;;12648988;23;20183;-78
2022/08/23 01:40:14;;;;;;;18.35;10.55;;;;;17.90;100882.00;;;;12624474;23;20184;-78
2022/08/23 01:45:18;;;;;;;18.75;9.90;;;;;17.90;100891.00;;;;12697930;23;20196;-78
2022/08/23 01:50:20;;;;;;;15.02;9.23;;;;;17.80;100891.00;;;;12673974;23;20167;-79
2022/08/23 01:55:23;;;;;;;15.85;9.30;;;;;17.70;100886.00;;;;12625819;23;20195;-78
2022/08/23 02:00:29;;;;;;;19.55;9.15;;;;;17.50;100882.00;;;;12696051;23;20191;-78
2022/08/23 02:05:36;;;;;;;16.83;9.38;;;;;17.40;100892.00;;;;12647421;23;20178;-78
2022/08/23 02:10:38;;;;;;;16.00;8.88;;;;;17.30;100890.00;;;;12668475;23;20225;-78
2022/08/23 02:15:45;;;;;;;15.50;9.82;;;;;17.20;100891.00;;;;12623235;23;20180;-78
2022/08/23 02:20:50;;;;;;;18.08;9.68;;;;;17.10;100879.00;;;;12647330;23;20184;-78
2022/08/23 02:25:52;;;;;;;16.30;10.07;;;;;17.00;100892.00;;;;12647530;23;20178;-78
2022/08/23 02:30:58;;;;;;;18.65;10.18;;;;;17.00;100889.00;;;;12668428;23;20160;-79
2022/08/23 02:36:01;;;;;;;13.23;9.10;;;;;17.00;100886.00;;;;12622695;23;20172;-78
2022/08/23 02:41:03;;;;;;;18.17;9.88;;;;;17.00;100885.00;;;;12671735;23;20164;-78
2022/08/23 02:46:06;;;;;;;16.55;8.95;;;;;16.90;100891.00;;;;12693520;23;20251;-78
2022/08/23 02:51:08;;;;;;;21.83;9.80;;;;;16.80;100901.00;;;;12625966;23;20536;-78
2022/08/23 02:56:12;;;;;;;15.32;9.43;;;;;16.80;100904.00;;;;12694100;23;20194;-78
2022/08/23 03:01:29;;;;;;;14.75;8.57;;;;;16.80;100897.00;;;;12651630;23;20172;-79
2022/08/23 03:06:39;;;;;;;14.65;8.85;;;;;16.70;100901.00;;;;12650780;23;20171;-78
2022/08/23 03:11:46;;;;;;;14.98;8.45;;;;;16.70;100905.00;;;;12649652;23;20174;-79
2022/08/23 03:16:49;;;;;;;11.60;8.05;;;;;16.60;100904.00;;;;12649074;23;20196;-78
2022/08/23 03:21:51;;;;;;;13.50;9.20;;;;;16.60;100905.00;;;;12650321;23;20215;-78
2022/08/23 03:26:54;;;;;;;15.77;9.60;;;;;16.60;100907.00;;;;12648704;23;20250;-78
2022/08/23 03:31:57;;;;;;;14.80;8.32;;;;;16.60;100915.00;;;;12649785;23;20182;-79
2022/08/23 03:37:00;;;;;;;14.45;8.45;;;;;16.50;100922.00;;;;12648759;23;20191;-78
2022/08/23 03:42:02;;;;;;;11.07;8.63;;;;;16.50;100929.00;;;;12672893;23;20233;-78
2022/08/23 03:47:07;;;;;;;12.65;8.65;;;;;16.40;100925.00;;;;12625839;23;20164;-78
2022/08/23 03:52:11;;;;;;;15.05;9.40;;;;;16.50;100925.00;;;;12671759;23;20210;-78
2022/08/23 03:57:13;;;;;;;14.75;10.82;;;;;16.60;100931.00;;;;12625082;23;20246;-78
2022/08/23 04:02:16;;;;;;;14.20;9.45;;;;;16.60;100934.00;;;;12649323;23;20171;-78
2022/08/23 04:07:20;;;;;;;13.40;8.43;;;;;16.60;100936.00;;;;12648678;23;20217;-78
2022/08/23 04:12:27;;;;;;;14.13;8.32;;;;;16.60;100946.00;;;;12625674;23;20176;-78
2022/08/23 04:17:29;;;;;;;14.57;9.45;;;;;16.50;100947.00;;;;12669000;23;20219;-78
2022/08/23 04:22:34;;;;;;;13.95;8.40;;;;;16.50;100950.00;;;;12650504;23;20200;-78
2022/08/23 04:27:36;;;;;;;13.75;8.75;;;;;16.50;100958.00;;;;12693093;23;20152;-78
2022/08/23 04:32:38;;;;;;;15.93;8.05;;;;;16.40;100957.00;;;;12649086;23;20172;-78
2022/08/23 04:37:41;;;;;;;14.52;8.00;;;;;16.40;100962.00;;;;12624937;23;20279;-78
2022/08/23 04:42:43;;;;;;;13.05;7.45;;;;;16.30;100967.00;;;;12672986;23;20247;-78
2022/08/23 04:47:46;;;;;;;13.23;9.70;;;;;16.30;100972.00;;;;12696226;23;20672;-78
2022/08/23 04:52:49;;;;;;;16.55;9.95;;;;;16.40;100977.00;;;;12648239;23;20196;-78
2022/08/23 04:57:51;;;;;;;14.83;9.10;;;;;16.40;100976.00;;;;12668802;23;20484;-78
2022/08/23 05:02:59;;;;;;;17.90;9.80;;;;;16.40;100975.00;;;;12649282;23;20168;-78
2022/08/23 05:08:01;;;;;;;13.80;8.85;;;;;16.40;100974.00;;;;12648638;23;20168;-78
2022/08/23 05:13:03;;;;;;;15.93;9.53;;;;;16.30;100981.00;;;;12648792;23;20160;-78
2022/08/23 05:18:05;;;;;;;14.88;9.63;;;;;16.40;100980.00;;;;12697159;23;20477;-78
2022/08/23 05:23:10;;;;;;;15.70;9.20;;;;;16.40;100974.00;;;;12625918;23;20180;-78
2022/08/23 05:28:33;;;;;;;12.18;8.75;;;;;16.40;100980.00;;;;12648042;23;20174;-79
2022/08/23 05:33:37;;;;;;;13.57;9.98;;;;;16.60;100984.00;;;;12693652;23;20174;-79
2022/08/23 05:38:40;;;;;;;13.40;10.33;;;;;17.10;100986.00;;;;12717344;23;20176;-78
2022/08/23 05:43:43;;;;;;;21.23;9.45;;;;;17.60;100978.00;;;;12672855;23;20221;-78
2022/08/23 05:48:49;;;;;;;24.75;9.98;;;;;18.20;100978.00;;;;12626181;23;20196;-78
2022/08/23 05:53:58;;;;;;;16.05;9.60;;;;;18.70;100979.00;;;;12650938;23;20204;-78
2022/08/23 05:59:05;;;;;;;18.08;10.50;;;;;19.20;100972.00;;;;12651348;23;20190;-78
2022/08/23 06:04:14;;;;;;;19.40;9.68;;;;;19.70;100980.00;;;;12650740;23;20176;-78
2022/08/23 06:09:18;;;;;;;23.80;9.60;;;;;20.10;100981.00;;;;12649856;23;20490;-78
2022/08/23 06:14:22;;;;;;;19.23;8.73;;;;;20.80;100985.00;;;;12674512;23;20183;-78
2022/08/23 06:19:24;;;;;;;14.93;7.47;;;;;21.50;100992.00;;;;12628301;23;20302;-78
2022/08/23 06:24:29;;;;;;;14.43;6.97;;;;;22.30;101011.00;;;;12746752;23;20168;-78
2022/08/23 06:29:44;;;;;;;16.60;6.78;;;;;23.00;101000.00;;;;12742694;23;20222;-78
2022/08/23 06:35:04;;;;;;;18.58;6.32;;;;;23.60;101001.00;;;;12680572;23;20206;-78
2022/08/23 06:40:30;;;;;;;14.73;6.43;;;;;24.10;101002.00;;;;12654619;23;20191;-79
2022/08/23 06:45:52;;;;;;;15.98;4.95;;;;;24.60;100997.00;;;;12654379;23;20171;-78
2022/08/23 06:50:59;;;;;;;12.02;4.25;;;;;25.10;100998.00;;;;12671884;23;20145;-78
2022/08/23 06:56:24;;;;;;;16.65;4.97;;;;;25.40;100998.00;;;;12693938;23;20223;-78
2022/08/23 07:01:46;;;;;;;11.80;5.82;;;;;25.60;100997.00;;;;12696285;23;20235;-78
2022/08/23 07:07:01;;;;;;;18.65;5.38;;;;;26.00;101001.00;;;;12672531;23;20172;-78
2022/08/23 07:12:05;;;;;;;12.75;4.97;;;;;26.20;101008.00;;;;12672543;23;20225;-79
2022/08/23 07:17:08;;;;;;;13.05;4.57;;;;;26.40;101007.00;;;;12672844;23;20503;-78
2022/08/23 07:22:10;;;;;;;6.97;2.90;;;;;26.70;101000.00;;;;12693270;23;20595;-78
2022/08/23 07:27:13;;;;;;;8.63;2.42;;;;;26.90;101002.00;;;;12741465;23;20156;-78
2022/08/23 07:32:23;;;;;;;7.60;2.40;;;;;26.90;101006.00;;;;12649440;23;20494;-79
2022/08/23 07:37:30;;;;;;;5.90;3.15;;;;;26.80;101010.00;;;;12716764;23;20258;-80
2022/08/23 07:42:35;;;;;;;9.02;2.90;;;;;26.80;101013.00;;;;12697158;23;20172;-77
2022/08/23 07:47:41;;;;;;;12.63;2.25;;;;;27.10;101009.00;;;;12649256;23;20172;-78
2022/08/23 07:52:51;;;;;;;6.60;2.38;;;;;27.50;101022.00;;;;12820954;23;20187;-78
2022/08/23 07:57:53;;;;;;;10.48;2.58;;;;;28.00;101018.00;;;;12623793;23;20515;-78
2022/08/23 08:03:10;;;;;;;6.85;2.15;;;;;28.30;101020.00;;;;12692593;23;20194;-79
2022/08/23 08:08:32;;;;;;;5.20;1.75;;;;;28.80;101031.00;;;;12719795;23;20202;-79
2022/08/23 08:13:41;;;;;;;5.05;2.38;;;;;29.30;101024.00;;;;12670919;23;20225;-79
2022/08/23 08:18:43;;;;;;;5.07;2.22;;;;;29.40;101028.00;;;;12692664;23;20219;-79
2022/08/23 08:24:04;;;;;;;4.78;2.08;;;;;30.00;101032.00;;;;12670036;23;20630;-79
2022/08/23 08:29:19;;;;;;;6.13;2.22;;;;;30.00;101038.00;;;;12691767;23;20136;-79
2022/08/23 08:34:21;;;;;;;7.85;2.10;;;;;30.30;101036.00;;;;12647189;23;20229;-79
2022/08/23 08:39:31;;;;;;;3.92;1.80;;;;;31.10;101032.00;;;;12648095;23;20192;-79
2022/08/23 08:44:56;;;;;;;7.43;1.80;;;;;31.40;101044.00;;;;12695913;23;20183;-77
2022/08/23 08:50:04;;;;;;;5.63;2.13;;;;;31.50;101042.00;;;;12691693;23;20163;-77
2022/08/23 08:55:16;;;;;;;3.97;1.40;;;;;31.60;101036.00;;;;12648665;23;20230;-76
2022/08/23 09:00:27;;;;;;;2.72;1.48;;;;;31.60;101046.00;;;;12670185;23;20192;-78
2022/08/23 09:05:33;;;;;;;8.45;1.52;;;;;31.60;101044.00;;;;12646445;23;20179;-80
2022/08/23 09:11:10;;;;;;;6.57;1.30;;;;;31.70;101062.00;;;;12632927;23;20546;-79
2022/08/23 09:36:38;;;;;;;4.55;1.67;;;;;32.70;101058.00;;;;12886859;22;884706;-76
2022/08/23 09:41:42;;;;;;;6.18;1.52;;;;;32.40;101051.00;;;;12874758;22;20172;-76
2022/08/23 09:46:45;;;;;;;6.30;1.73;;;;;33.00;101047.00;;;;12885319;22;20271;-76
2022/08/23 09:51:53;;;;;;;7.93;2.20;;;;;34.10;101052.00;;;;12906581;22;20157;-75
2022/08/23 09:57:04;;;;;;;4.80;1.70;;;;;34.00;101049.00;;;;12930803;22;20165;-75
2022/08/23 10:02:22;;;;;;;9.73;2.63;;;;;33.70;101054.00;;;;12883895;22;20169;-75
2022/08/23 10:07:40;;;;;;;6.20;1.23;;;;;33.20;101059.00;;;;12860965;22;20193;-77
2022/08/23 10:12:47;;;;;;;6.38;1.38;;;;;33.20;101054.00;;;;12881246;22;20611;-77
2022/08/23 10:18:06;;;;;;;6.88;1.85;;;;;34.40;101041.00;;;;12834313;22;20195;-77
2022/08/23 10:23:37;;;;;;;4.00;1.50;;;;;34.80;101043.00;;;;12886282;22;20222;-77
2022/08/23 10:34:39;;;;;;;4.30;1.40;;;;;35.30;101051.00;;;;12883182;22;20712;-76
2022/08/23 10:39:59;;;;;;;2.88;1.13;;;;;36.00;101045.00;;;;12825959;22;20277;-76
2022/08/23 10:45:24;;;;;;;8.07;1.92;;;;;35.20;101047.00;;;;12915436;22;20166;-75
2022/08/23 10:50:31;;;;;;;5.72;1.80;;;;;35.50;101053.00;;;;12823418;22;20189;-76
2022/08/23 10:55:53;;;;;;;5.55;2.05;;;;;33.60;101042.00;;;;12845214;22;20180;-77
2022/08/23 11:01:17;;;;;;;6.00;1.75;;;;;33.70;101033.00;;;;12839526;22;20166;-77
2022/08/23 11:06:34;;;;;;;4.82;1.52;;;;;35.10;101041.00;;;;12871155;22;20193;-76
2022/08/23 11:11:48;;;;;;;3.58;0.93;;;;;35.30;101029.00;;;;12846079;22;20165;-76
2022/08/23 11:16:58;;;;;;;1.63;0.98;;;;;36.60;101008.00;;;;12846334;22;20252;-77
2022/08/23 11:22:53;;;;;;;1.63;0.80;;;;;35.30;101027.00;;;;12847259;22;20184;-76
2022/08/23 11:28:22;;;;;;;3.20;1.08;;;;;32.90;101032.00;;;;12781718;22;20516;-77
2022/08/23 11:33:43;;;;;;;2.03;0.90;;;;;31.70;101033.00;;;;12850118;22;20182;-77
2022/08/23 11:38:48;;;;;;;1.90;1.15;;;;;33.10;101031.00;;;;12850121;22;20753;-77
2022/08/23 11:44:06;;;;;;;2.50;1.05;;;;;33.80;101016.00;;;;12853149;22;20199;-77
2022/08/23 11:49:15;;;;;;;1.13;0.52;;;;;35.20;101028.00;;;;12878103;22;20240;-77
2022/08/23 11:54:31;;;;;;;2.63;0.73;;;;;36.30;101022.00;;;;12874759;22;20169;-78
2022/08/23 11:59:39;;;;;;;0.85;0.50;;;;;36.70;101029.00;;;;12852514;22;20658;-78
2022/08/23 12:04:50;;;;;;;1.02;0.52;;;;;37.20;101022.00;;;;12917966;22;20268;-78
2022/08/23 12:09:55;;;;;;;0.75;0.60;;;;;37.60;101029.00;;;;12847616;22;20283;-77
2022/08/23 12:15:00;;;;;;;1.00;0.50;;;;;36.60;101014.00;;;;12847505;22;20189;-77
2022/08/23 12:20:08;;;;;;;1.05;0.60;;;;;35.30;101018.00;;;;12872177;22;20279;-78
2022/08/23 12:25:20;;;;;;;2.55;0.82;;;;;36.00;101028.00;;;;12847893;22;20242;-77
2022/08/23 12:30:24;;;;;;;1.30;0.70;;;;;35.90;101020.00;;;;12849175;22;20193;-78
2022/08/23 12:36:12;;;;;;;0.52;0.52;;;;;35.80;101028.00;;;;12825552;22;20193;-76
2022/08/23 12:41:26;;;;;;;0.88;0.70;;;;;34.90;101029.00;;;;12841773;22;20533;-77
2022/08/23 12:46:34;;;;;;;2.80;0.80;;;;;33.50;101022.00;;;;12873798;22;20556;-77
2022/08/23 12:51:41;;;;;;;1.30;0.60;;;;;35.30;101017.00;;;;12848492;22;20620;-77
2022/08/23 12:56:48;;;;;;;3.33;0.70;;;;;34.50;101026.00;;;;12846745;22;20264;-77
2022/08/23 13:01:50;;;;;;;0.75;0.70;;;;;33.00;101028.00;;;;12920106;22;20679;-78
2022/08/23 13:07:00;;;;;;;2.63;0.90;;;;;31.70;101029.00;;;;12851070;22;20200;-77
2022/08/23 13:12:03;;;;;;;4.18;0.80;;;;;33.90;101026.00;;;;12874564;22;20314;-77
2022/08/23 13:17:35;;;;;;;1.58;0.90;;;;;33.20;101030.00;;;;12848263;22;20648;-77
2022/08/23 13:22:38;;;;;;;2.03;0.98;;;;;33.70;101032.00;;;;12846487;22;20438;-77
2022/08/23 13:27:42;;;;;;;2.85;0.80;;;;;33.10;101037.00;;;;12848490;22;20366;-77
2022/08/23 13:33:11;;;;;;;1.08;0.80;;;;;34.10;101031.00;;;;12848537;22;20249;-77
2022/08/23 13:38:13;;;;;;;1.73;0.80;;;;;35.50;101038.00;;;;12918685;22;20735;-77
2022/08/23 13:43:27;;;;;;;1.63;1.00;;;;;35.40;101039.00;;;;12872561;22;20612;-76
2022/08/23 13:48:32;;;;;;;1.75;0.82;;;;;37.60;101019.00;;;;12846247;22;20240;-76
2022/08/23 13:53:33;;;;;;;1.85;0.80;;;;;34.80;101028.00;;;;12871381;22;20173;-76
2022/08/23 13:58:38;;;;;;;1.48;0.70;;;;;35.60;101023.00;;;;12823342;22;20166;-77
2022/08/23 14:03:39;;;;;;;1.15;0.90;;;;;35.90;101018.00;;;;12872213;22;20207;-78
2022/08/23 14:08:41;;;;;;;1.23;0.90;;;;;40.10;101009.00;;;;12924119;22;20189;-78
2022/08/23 14:13:45;;;;;;;1.50;0.80;;;;;37.10;101018.00;;;;12850024;22;20173;-79
2022/08/23 14:18:47;;;;;;;3.55;0.80;;;;;36.80;101002.00;;;;12852775;22;20174;-78
2022/08/23 14:24:08;;;;;;;2.53;0.82;;;;;40.90;100993.00;;;;12923739;22;20164;-78
2022/08/23 14:29:10;;;;;;;1.65;1.00;;;;;39.50;101010.00;;;;12827364;22;20683;-78
2022/08/23 14:34:16;;;;;;;1.48;0.93;;;;;35.80;101010.00;;;;12879046;22;20177;-79
2022/08/23 14:39:19;;;;;;;2.05;0.93;;;;;32.90;101003.00;;;;12881104;22;20646;-79
2022/08/23 14:44:20;;;;;;;4.25;1.10;;;;;39.10;100981.00;;;;12857582;22;20174;-78
2022/08/23 14:49:22;;;;;;;1.73;0.90;;;;;39.70;101011.00;;;;12930194;22;20189;-78
2022/08/23 14:54:25;;;;;;;2.67;1.10;;;;;38.30;100984.00;;;;12898332;22;20162;-79
2022/08/23 14:59:26;;;;;;;2.10;1.05;;;;;38.30;101004.00;;;;12880142;22;20173;-78
2022/08/23 15:04:28;;;;;;;0.90;0.90;;;;;36.20;101001.00;;;;12898961;22;20173;-78
2022/08/23 15:09:35;;;;;;;1.33;1.10;;;;;34.20;100990.00;;;;12923389;22;20193;-78
2022/08/23 15:14:36;;;;;;;3.60;1.08;;;;;34.10;100994.00;;;;12853424;22;20172;-78
2022/08/23 15:19:38;;;;;;;1.83;0.93;;;;;32.90;100997.00;;;;12924969;22;20158;-78
2022/08/23 15:24:41;;;;;;;2.30;1.00;;;;;31.80;101000.00;;;;12828728;22;20228;-79
2022/08/23 15:29:42;;;;;;;1.60;0.90;;;;;30.90;100997.00;;;;12873515;22;20246;-80
2022/08/23 15:34:43;;;;;;;4.85;1.25;;;;;30.80;100986.00;;;;12898025;22;20165;-79
2022/08/23 15:39:47;;;;;;;2.83;0.90;;;;;30.80;100991.00;;;;12922624;22;20201;-79
2022/08/23 15:44:49;;;;;;;1.63;1.02;;;;;30.90;100987.00;;;;12898735;22;20168;-79
2022/08/23 15:49:52;;;;;;;2.00;1.10;;;;;30.80;100990.00;;;;12829095;22;20947;-79
2022/08/23 15:54:54;;;;;;;1.35;0.85;;;;;30.60;100985.00;;;;12850736;22;20173;-79
2022/08/23 15:59:57;;;;;;;0.95;0.93;;;;;30.60;100988.00;;;;12900570;22;20184;-79
2022/08/23 16:04:59;;;;;;;1.63;1.00;;;;;30.60;100990.00;;;;12827219;22;20786;-79
2022/08/23 16:10:02;;;;;;;1.70;1.08;;;;;30.50;100989.00;;;;12847691;22;20782;-78
2022/08/23 16:15:06;;;;;;;1.73;1.23;;;;;30.50;100988.00;;;;12875299;22;20174;-78
2022/08/23 16:20:09;;;;;;;1.60;1.38;;;;;30.20;100988.00;;;;12893292;22;20176;-78
2022/08/23 16:25:10;;;;;;;1.17;1.08;;;;;30.00;100982.00;;;;12896531;22;20240;-79
2022/08/23 16:30:12;;;;;;;1.95;1.23;;;;;29.90;100987.00;;;;12875052;22;20209;-78
2022/08/23 16:35:14;;;;;;;1.67;1.27;;;;;29.60;100982.00;;;;12850051;22;20213;-79
2022/08/23 16:40:16;;;;;;;4.80;1.17;;;;;29.60;100985.00;;;;12823431;22;20220;-79
2022/08/23 16:45:18;;;;;;;1.38;1.27;;;;;29.50;100993.00;;;;12850101;22;20177;-79
2022/08/23 16:50:27;;;;;;;2.33;1.05;;;;;29.40;100991.00;;;;12849942;22;20200;-79
2022/08/23 16:55:28;;;;;;;1.40;1.30;;;;;29.30;100988.00;;;;12876631;22;20248;-79
2022/08/23 17:00:30;;;;;;;2.22;1.30;;;;;29.20;100992.00;;;;12851853;22;20491;-78
2022/08/23 17:05:33;;;;;;;3.47;1.42;;;;;28.90;101002.00;;;;12852802;22;20176;-79
2022/08/23 17:10:34;;;;;;;2.17;1.33;;;;;28.70;100999.00;;;;12897884;22;20208;-79
2022/08/23 17:15:36;;;;;;;2.22;1.30;;;;;28.50;101003.00;;;;12849538;22;20173;-78
2022/08/23 17:20:38;;;;;;;1.45;1.20;;;;;28.40;101005.00;;;;12876253;22;20647;-79
2022/08/23 17:25:46;;;;;;;2.10;1.38;;;;;28.30;101010.00;;;;12852072;22;20259;-78
2022/08/23 17:30:47;;;;;;;1.40;1.30;;;;;28.30;101014.00;;;;12875354;22;20216;-78
2022/08/23 17:35:49;;;;;;;1.50;1.38;;;;;28.20;101016.00;;;;12873713;22;20185;-79
2022/08/23 17:40:51;;;;;;;5.45;1.45;;;;;28.10;101025.00;;;;12878176;22;20177;-79
2022/08/23 17:45:52;;;;;;;4.32;1.48;;;;;27.90;101038.00;;;;12900119;22;20165;-80
2022/08/23 17:50:54;;;;;;;1.95;1.50;;;;;27.60;101042.00;;;;12899399;22;20189;-78
2022/08/23 17:55:56;;;;;;;4.07;1.40;;;;;27.30;101040.00;;;;12852624;22;20196;-78
2022/08/23 18:00:58;;;;;;;3.67;1.30;;;;;27.10;101045.00;;;;12852299;22;20256;-79
2022/08/23 18:06:00;;;;;;;1.55;1.38;;;;;26.90;101048.00;;;;12877314;22;20352;-78
2022/08/23 18:11:01;;;;;;;2.35;1.15;;;;;26.70;101047.00;;;;12828919;22;20270;-78
2022/08/23 18:16:03;;;;;;;1.30;1.20;;;;;26.50;101056.00;;;;12898596;22;20548;-78
2022/08/23 18:21:06;;;;;;;3.30;1.17;;;;;26.30;101053.00;;;;12924425;22;20260;-79
2022/08/23 18:31:31;;;;;;;1.50;1.40;;;;;26.00;101069.00;;;;12878705;22;20166;-78
2022/08/23 18:36:32;;;;;;;2.28;1.30;;;;;25.80;101086.00;;;;12924390;22;20411;-79
2022/08/23 18:41:35;;;;;;;1.80;1.70;;;;;25.60;101099.00;;;;12834963;22;20165;-79
2022/08/23 18:46:38;;;;;;;3.50;1.60;;;;;25.40;101107.00;;;;12859216;22;20262;-77
2022/08/23 18:51:41;;;;;;;4.35;1.67;;;;;25.20;101106.00;;;;12900878;22;20731;-78
2022/08/23 18:56:43;;;;;;;1.60;1.20;;;;;25.00;101113.00;;;;12834835;22;20204;-78
2022/08/23 19:01:44;;;;;;;2.10;1.67;;;;;24.80;101119.00;;;;12877583;22;20591;-78
2022/08/23 19:06:45;;;;;;;5.20;1.80;;;;;24.60;101125.00;;;;12877710;22;20194;-78
2022/08/23 19:11:47;;;;;;;1.83;1.58;;;;;24.40;101129.00;;;;12852511;22;20173;-78
2022/08/23 19:16:48;;;;;;;2.50;1.50;;;;;24.20;101136.00;;;;12877617;22;20197;-78
2022/08/23 19:21:50;;;;;;;4.30;1.80;;;;;23.90;101138.00;;;;12879939;22;20209;-78
2022/08/23 19:26:52;;;;;;;1.92;1.48;;;;;23.70;101145.00;;;;12923418;22;20165;-78
2022/08/23 19:31:53;;;;;;;3.58;1.90;;;;;23.50;101151.00;;;;12852782;22;20509;-78
2022/08/23 19:36:55;;;;;;;2.00;1.70;;;;;23.30;101161.00;;;;12851367;22;20280;-78
2022/08/23 19:42:04;;;;;;;2.30;2.05;;;;;23.20;101149.00;;;;12853033;22;20181;-78
2022/08/23 19:47:12;;;;;;;4.07;2.10;;;;;23.10;101166.00;;;;12900106;22;20225;-78
2022/08/23 19:52:21;;;;;;;4.78;1.80;;;;;23.00;101173.00;;;;12879068;22;20173;-78
2022/08/23 19:57:22;;;;;;;2.05;1.77;;;;;22.90;101174.00;;;;12875342;22;20200;-78
2022/08/23 20:02:24;;;;;;;3.72;2.00;;;;;22.80;101181.00;;;;12896892;22;20176;-78
2022/08/23 20:07:25;;;;;;;1.98;1.83;;;;;22.80;101181.00;;;;12879297;22;20184;-78
2022/08/23 20:12:27;;;;;;;3.28;1.75;;;;;22.80;101186.00;;;;12881859;22;20227;-77
2022/08/23 20:17:29;;;;;;;2.38;2.00;;;;;22.70;101192.00;;;;12833089;22;20197;-78
2022/08/23 20:27:50;;;;;;;3.40;2.38;;;;;22.60;101195.00;;;;12851463;22;20270;-77
2022/08/23 20:32:51;;;;;;;5.93;1.90;;;;;22.60;101206.00;;;;12877624;22;20193;-78
2022/08/23 20:37:52;;;;;;;4.65;1.92;;;;;22.50;101198.00;;;;12897591;22;20775;-78
2022/08/23 20:42:54;;;;;;;4.85;2.45;;;;;22.40;101211.00;;;;12872245;22;20162;-78
2022/08/23 20:47:55;;;;;;;4.07;2.17;;;;;22.20;101202.00;;;;12876277;22;20270;-78
2022/08/23 20:52:56;;;;;;;4.68;2.13;;;;;22.10;101191.00;;;;12828470;22;20637;-78
2022/08/23 20:57:59;;;;;;;3.58;2.55;;;;;22.00;101199.00;;;;12848356;22;20228;-78
2022/08/23 21:03:00;;;;;;;2.83;2.50;;;;;21.90;101204.00;;;;12873789;22;20571;-78
2022/08/23 21:08:02;;;;;;;3.97;2.20;;;;;21.70;101206.00;;;;12922359;22;20224;-79
2022/08/23 21:13:04;;;;;;;6.93;2.67;;;;;21.60;101208.00;;;;12848948;22;20215;-77
2022/08/23 21:18:11;;;;;;;4.38;2.20;;;;;21.60;101213.00;;;;12846920;22;20197;-77
2022/08/23 21:23:12;;;;;;;3.47;2.22;;;;;21.60;101211.00;;;;12871322;22;20169;-77
2022/08/23 21:28:13;;;;;;;4.07;2.75;;;;;21.50;101221.00;;;;12897387;22;20177;-77
2022/08/23 21:33:15;;;;;;;3.47;1.65;;;;;21.40;101229.00;;;;12873738;22;20177;-76
2022/08/23 21:38:18;;;;;;;3.97;2.25;;;;;21.20;101224.00;;;;12870993;22;20225;-77
2022/08/23 21:43:19;;;;;;;5.88;2.80;;;;;21.00;101222.00;;;;12845609;22;20233;-78
2022/08/23 21:48:21;;;;;;;3.95;2.50;;;;;20.90;101226.00;;;;12897903;22;20180;-77
2022/08/23 21:53:22;;;;;;;3.10;2.30;;;;;20.90;101232.00;;;;12891468;22;20170;-77
2022/08/23 21:58:24;;;;;;;3.83;2.88;;;;;20.80;101224.00;;;;12843797;22;20214;-77
2022/08/23 22:03:25;;;;;;;3.08;2.72;;;;;20.70;101227.00;;;;12870116;22;20213;-77
2022/08/23 22:08:26;;;;;;;3.60;2.55;;;;;20.60;101231.00;;;;12821438;22;20184;-78
2022/08/23 22:13:27;;;;;;;5.80;3.35;;;;;20.40;101223.00;;;;12845354;22;20177;-78
2022/08/23 22:18:29;;;;;;;3.78;2.60;;;;;20.30;101231.00;;;;12873069;22;20196;-77
2022/08/23 22:23:31;;;;;;;3.80;2.78;;;;;20.30;101240.00;;;;12846705;22;20609;-78
2022/08/23 22:28:32;;;;;;;4.60;2.90;;;;;20.20;101233.00;;;;12921461;22;20180;-77
2022/08/23 22:33:34;;;;;;;3.33;2.90;;;;;20.10;101242.00;;;;12876199;22;20182;-78
2022/08/23 22:38:36;;;;;;;4.05;3.00;;;;;20.00;101249.00;;;;12875904;22;20251;-78
2022/08/23 22:43:37;;;;;;;4.30;2.80;;;;;20.00;101251.00;;;;12870710;22;20235;-78
2022/08/23 22:48:39;;;;;;;4.88;3.13;;;;;19.90;101245.00;;;;12850654;22;20229;-78
2022/08/23 22:53:45;;;;;;;3.85;2.97;;;;;19.80;101252.00;;;;12892397;22;20608;-77
2022/08/23 22:58:48;;;;;;;5.80;2.80;;;;;19.70;101260.00;;;;12921316;22;20213;-77
2022/08/23 23:03:55;;;;;;;5.43;2.70;;;;;19.60;101260.00;;;;12895629;22;20173;-78
2022/08/23 23:08:58;;;;;;;4.95;3.30;;;;;19.50;101268.00;;;;12899396;22;20172;-77
2022/08/23 23:14:00;;;;;;;3.42;3.13;;;;;19.40;101263.00;;;;12897664;22;21068;-78
2022/08/23 23:24:28;;;;;;;4.63;3.47;;;;;19.30;101259.00;;;;12874767;22;20166;-77
2022/08/23 23:29:31;;;;;;;3.50;3.03;;;;;19.30;101265.00;;;;12923067;22;20314;-77
2022/08/23 23:34:32;;;;;;;4.00;3.25;;;;;19.20;101266.00;;;;12875623;22;20528;-78
2022/08/23 23:39:33;;;;;;;4.70;3.30;;;;;19.20;101260.00;;;;12922996;22;20200;-78
2022/08/23 23:44:35;;;;;;;4.13;2.90;;;;;19.10;101255.00;;;;12921725;22;20443;-78
2022/08/23 23:49:36;;;;;;;4.13;3.33;;;;;19.00;101262.00;;;;12875881;22;20173;-77
2022/08/23 23:54:39;;;;;;;5.70;3.25;;;;;19.00;101268.00;;;;12850990;22;20173;-78
2022/08/23 23:59:41;;;;;;;5.50;3.72;;;;;18.90;101266.00;;;;12897033;22;20193;-77
